createdAt,value
2018-12-11T00:00:40.265Z,1.10
2018-12-11T00:03:06.915Z,1.13
2018-12-11T00:05:33.568Z,1.00
2018-12-11T00:07:59.841Z,1.10
2018-12-11T00:10:26.488Z,1.33
2018-12-11T00:12:52.793Z,1.10
2018-12-11T00:15:19.094Z,1.00
2018-12-11T00:17:45.760Z,1.20
2018-12-11T00:20:13.762Z,0.90
2018-12-11T00:22:40.465Z,1.13
2018-12-11T00:25:08.752Z,0.90
2018-12-11T00:27:35.423Z,1.00
2018-12-11T00:30:02.257Z,1.17
2018-12-11T00:32:29.156Z,1.00
2018-12-11T00:34:55.796Z,0.70
2018-12-11T00:37:22.432Z,0.97
2018-12-11T00:39:48.694Z,0.70
2018-12-11T00:42:16.275Z,0.90
2018-12-11T00:44:42.845Z,0.90
2018-12-11T00:47:10.640Z,1.10
2018-12-11T00:49:37.767Z,0.80
2018-12-11T00:52:06.001Z,1.00
2018-12-11T00:54:32.696Z,0.80
2018-12-11T00:56:59.000Z,0.80
2018-12-11T00:59:25.381Z,0.80
2018-12-11T01:01:52.009Z,0.90
2018-12-11T01:04:18.722Z,0.70
2018-12-11T01:06:45.398Z,0.60
2018-12-11T01:09:12.041Z,1.00
2018-12-11T01:11:38.326Z,0.73
2018-12-11T01:14:04.947Z,0.93
2018-12-11T01:16:32.961Z,0.70
2018-12-11T01:19:01.158Z,0.90
2018-12-11T01:21:28.783Z,0.70
2018-12-11T01:23:56.364Z,0.73
2018-12-11T01:26:23.626Z,0.60
2018-12-11T01:28:49.917Z,0.70
2018-12-11T01:31:16.240Z,0.50
2018-12-11T01:33:43.851Z,0.60
2018-12-11T01:36:10.142Z,0.73
2018-12-11T01:38:36.426Z,0.50
2018-12-11T01:41:02.829Z,0.60
2018-12-11T01:43:30.337Z,0.63
2018-12-11T01:45:57.511Z,0.50
2018-12-11T01:48:32.212Z,0.60
2018-12-11T01:50:58.852Z,0.80
2018-12-11T01:53:25.505Z,0.80
2018-12-11T01:55:53.907Z,0.50
2018-12-11T01:58:20.551Z,0.60
2018-12-11T02:00:47.232Z,0.53
2018-12-11T02:03:14.848Z,0.60
2018-12-11T02:05:41.685Z,0.40
2018-12-11T02:08:09.779Z,0.50
2018-12-11T02:10:36.199Z,0.37
2018-12-11T02:13:02.514Z,0.53
2018-12-11T02:15:29.096Z,0.50
2018-12-11T02:17:56.764Z,0.43
2018-12-11T02:20:23.660Z,0.50
2018-12-11T02:22:49.963Z,0.70
2018-12-11T02:25:16.595Z,0.80
2018-12-11T02:27:43.587Z,0.60
2018-12-11T02:30:10.318Z,0.60
2018-12-11T02:32:37.197Z,0.77
2018-12-11T02:35:04.349Z,0.70
2018-12-11T02:37:31.078Z,1.17
2018-12-11T02:39:57.379Z,0.77
2018-12-11T02:42:25.274Z,0.80
2018-12-11T02:44:51.565Z,0.80
2018-12-11T02:47:18.906Z,1.00
2018-12-11T02:49:45.948Z,0.70
2018-12-11T02:52:13.284Z,0.70
2018-12-11T02:54:39.854Z,0.90
2018-12-11T02:57:07.558Z,0.93
2018-12-11T02:59:34.601Z,0.90
2018-12-11T03:02:01.061Z,0.83
2018-12-11T03:04:27.701Z,1.03
2018-12-11T03:06:54.562Z,0.70
2018-12-11T03:09:21.439Z,0.60
2018-12-11T03:11:48.797Z,0.90
2018-12-11T03:14:15.130Z,0.93
2018-12-11T03:16:42.641Z,0.60
2018-12-11T03:19:09.616Z,0.90
2018-12-11T03:21:37.260Z,0.83
2018-12-11T03:24:03.934Z,0.93
2018-12-11T03:26:30.932Z,0.70
2018-12-11T03:28:57.216Z,0.70
2018-12-11T03:31:30.300Z,0.90
2018-12-11T03:33:56.996Z,0.90
2018-12-11T03:36:24.248Z,0.70
2018-12-11T03:38:51.163Z,0.90
2018-12-11T03:41:18.027Z,0.70
2018-12-11T03:43:45.499Z,0.60
2018-12-11T03:46:11.807Z,1.10
2018-12-11T03:48:39.938Z,0.80
2018-12-11T03:51:06.669Z,0.80
2018-12-11T03:53:33.001Z,0.83
2018-12-11T03:55:59.341Z,0.67
2018-12-11T03:58:33.666Z,0.80
2018-12-11T04:01:00.586Z,0.77
2018-12-11T04:03:27.466Z,0.73
2018-12-11T04:05:54.124Z,0.80
2018-12-11T04:08:20.429Z,0.83
2018-12-11T04:10:47.352Z,0.90
2018-12-11T04:13:14.924Z,0.60
2018-12-11T04:15:42.624Z,0.60
2018-12-11T04:18:10.559Z,0.70
2018-12-11T04:20:36.989Z,0.73
2018-12-11T04:23:10.648Z,0.63
2018-12-11T04:25:37.580Z,0.90
2018-12-11T04:28:04.219Z,0.80
2018-12-11T04:30:30.876Z,0.80
2018-12-11T04:32:57.645Z,0.73
2018-12-11T04:35:23.963Z,0.67
2018-12-11T04:37:51.568Z,0.70
2018-12-11T04:40:18.916Z,0.90
2018-12-11T04:42:45.325Z,0.83
2018-12-11T04:45:11.800Z,1.03
2018-12-11T04:47:38.331Z,0.60
2018-12-11T04:50:04.992Z,0.67
2018-12-11T04:52:31.676Z,0.60
2018-12-11T04:54:58.335Z,0.73
2018-12-11T04:57:24.972Z,0.70
2018-12-11T04:59:51.961Z,0.73
2018-12-11T05:02:18.877Z,0.87
2018-12-11T05:04:45.519Z,0.67
2018-12-11T05:07:12.135Z,0.80
2018-12-11T05:09:39.297Z,0.97
2018-12-11T05:12:05.936Z,0.80
2018-12-11T05:14:32.264Z,0.80
2018-12-11T05:16:58.543Z,0.93
2018-12-11T05:19:25.129Z,0.80
2018-12-11T05:21:53.368Z,1.37
2018-12-11T05:24:20.162Z,0.90
2018-12-11T05:26:46.785Z,0.83
2018-12-11T05:29:13.317Z,0.90
2018-12-11T05:31:39.949Z,0.63
2018-12-11T05:34:06.841Z,0.77
2018-12-11T05:36:34.690Z,0.63
2018-12-11T05:39:01.344Z,0.97
2018-12-11T05:41:27.629Z,1.07
2018-12-11T05:43:54.251Z,1.10
2018-12-11T05:46:20.892Z,1.03
2018-12-11T05:48:47.527Z,1.17
2018-12-11T05:51:14.161Z,1.03
2018-12-11T05:53:40.800Z,1.20
2018-12-11T05:56:07.441Z,0.97
2018-12-11T05:58:34.104Z,0.80
2018-12-11T06:01:00.763Z,0.80
2018-12-11T06:03:27.354Z,0.70
2018-12-11T06:05:54.242Z,0.70
2018-12-11T06:08:20.873Z,0.77
2018-12-11T06:10:47.525Z,1.00
2018-12-11T06:13:13.800Z,1.00
2018-12-11T06:15:41.283Z,1.20
2018-12-11T06:18:07.922Z,1.00
2018-12-11T06:20:34.611Z,1.20
2018-12-11T06:23:01.392Z,1.03
2018-12-11T06:25:28.932Z,1.10
2018-12-11T06:27:55.578Z,0.90
2018-12-11T06:30:22.252Z,0.90
2018-12-11T06:32:48.905Z,1.33
2018-12-11T06:35:15.537Z,1.20
2018-12-11T06:37:42.204Z,0.90
2018-12-11T06:40:08.893Z,1.03
2018-12-11T06:42:35.795Z,1.00
2018-12-11T06:45:02.960Z,1.10
2018-12-11T06:47:29.358Z,0.93
2018-12-11T06:49:56.003Z,1.00
2018-12-11T06:52:22.640Z,0.93
2018-12-11T06:54:49.268Z,1.50
2018-12-11T06:57:15.953Z,1.13
2018-12-11T06:59:42.591Z,1.30
2018-12-11T07:02:10.003Z,1.30
2018-12-11T07:04:36.297Z,1.23
2018-12-11T07:07:02.948Z,1.07
2018-12-11T07:09:29.634Z,1.30
2018-12-11T07:11:56.256Z,1.30
2018-12-11T07:14:22.584Z,0.90
2018-12-11T07:16:49.233Z,1.03
2018-12-11T07:19:15.513Z,1.07
2018-12-11T07:21:41.827Z,0.90
2018-12-11T07:24:08.139Z,0.97
2018-12-11T07:26:34.785Z,1.10
2018-12-11T07:29:01.453Z,1.20
2018-12-11T07:31:28.125Z,1.50
2018-12-11T07:33:54.767Z,1.20
2018-12-11T07:36:21.080Z,1.10
2018-12-11T07:38:47.719Z,1.37
2018-12-11T07:41:14.031Z,1.43
2018-12-11T07:43:40.329Z,1.10
2018-12-11T07:46:07.357Z,1.50
2018-12-11T07:48:34.968Z,1.20
2018-12-11T07:51:01.643Z,1.20
2018-12-11T07:53:28.041Z,1.27
2018-12-11T07:56:00.027Z,1.27
2018-12-11T07:58:23.365Z,1.43
2018-12-11T08:00:50.008Z,1.50
2018-12-11T08:03:16.710Z,1.40
2018-12-11T08:05:43.366Z,1.13
2018-12-11T08:08:12.083Z,1.30
2018-12-11T08:10:38.388Z,0.90
2018-12-11T08:13:05.040Z,1.33
2018-12-11T08:15:31.668Z,1.50
2018-12-11T08:17:58.312Z,1.37
2018-12-11T08:20:24.585Z,1.23
2018-12-11T08:22:50.888Z,0.90
2018-12-11T08:25:17.533Z,1.30
2018-12-11T08:27:44.399Z,1.00
2018-12-11T08:30:11.033Z,1.30
2018-12-11T08:32:37.557Z,1.53
2018-12-11T08:35:04.199Z,1.17
2018-12-11T08:37:30.836Z,1.37
2018-12-11T08:39:57.459Z,1.37
2018-12-11T08:42:24.100Z,1.30
2018-12-11T08:44:51.699Z,1.30
2018-12-11T08:47:24.947Z,1.40
2018-12-11T08:52:24.116Z,1.10
2018-12-11T08:54:50.753Z,1.13
2018-12-11T08:57:17.401Z,0.97
2018-12-11T08:59:43.708Z,1.13
2018-12-11T09:02:10.356Z,1.23
2018-12-11T09:04:36.997Z,1.47
2018-12-11T09:07:04.008Z,1.23
2018-12-11T09:09:30.653Z,1.73
2018-12-11T09:11:58.058Z,1.33
2018-12-11T09:14:24.749Z,1.43
2018-12-11T09:16:51.381Z,1.53
2018-12-11T09:19:17.694Z,1.57
2018-12-11T09:21:44.957Z,1.73
2018-12-11T09:24:11.591Z,19.90
2018-12-11T09:26:37.897Z,7.57
2018-12-11T09:29:04.516Z,1.90
2018-12-11T09:31:30.778Z,1.37
2018-12-11T09:33:57.401Z,1.53
2018-12-11T09:36:24.177Z,0.97
2018-12-11T09:38:50.844Z,1.20
2018-12-11T09:41:17.464Z,1.37
2018-12-11T09:43:43.739Z,1.40
2018-12-11T09:46:10.031Z,1.63
2018-12-11T09:48:36.683Z,1.10
2018-12-11T09:51:03.127Z,1.10
2018-12-11T09:53:29.800Z,1.43
2018-12-11T09:55:56.452Z,1.20
2018-12-11T09:58:23.087Z,1.30
2018-12-11T10:00:49.740Z,1.20
2018-12-11T10:03:16.017Z,1.57
2018-12-11T10:05:42.316Z,1.77
2018-12-11T10:08:08.580Z,1.33
2018-12-11T10:10:35.226Z,1.47
2018-12-11T10:13:01.864Z,1.30
2018-12-11T10:15:28.516Z,1.23
2018-12-11T10:17:55.128Z,1.60
2018-12-11T10:20:21.916Z,1.40
2018-12-11T10:22:48.552Z,1.47
2018-12-11T10:25:16.196Z,1.70
2018-12-11T10:27:42.872Z,1.20
2018-12-11T10:30:09.660Z,1.20
2018-12-11T10:32:35.949Z,1.20
2018-12-11T10:35:02.914Z,1.23
2018-12-11T10:37:29.206Z,1.40
2018-12-11T10:39:55.868Z,1.30
2018-12-11T10:42:22.384Z,1.07
2018-12-11T10:44:49.044Z,1.20
2018-12-11T10:47:15.347Z,1.30
2018-12-11T10:49:42.808Z,1.20
2018-12-11T10:52:09.553Z,1.00
2018-12-11T10:57:25.840Z,1.40
2018-12-11T10:59:52.481Z,1.30
2018-12-11T11:02:23.033Z,1.30
2018-12-11T11:04:49.711Z,1.17
2018-12-11T11:07:16.344Z,1.03
2018-12-11T11:09:42.637Z,0.90
2018-12-11T11:12:09.267Z,1.07
2018-12-11T11:14:35.918Z,1.23
2018-12-11T11:17:02.562Z,1.17
2018-12-11T11:19:28.899Z,1.30
2018-12-11T11:21:55.546Z,1.00
2018-12-11T11:24:22.398Z,1.30
2018-12-11T11:26:48.769Z,1.50
2018-12-11T11:29:15.357Z,1.40
2018-12-11T11:31:42.999Z,1.20
2018-12-11T11:34:10.668Z,1.50
2018-12-11T11:36:36.982Z,1.00
2018-12-11T11:39:04.946Z,1.17
2018-12-11T11:41:32.380Z,1.13
2018-12-11T11:43:59.029Z,1.20
2018-12-11T11:46:26.249Z,1.17
2018-12-11T11:48:52.925Z,1.00
2018-12-11T11:51:20.425Z,1.07
2018-12-11T11:53:48.816Z,0.77
2018-12-11T11:56:15.461Z,0.73
2018-12-11T11:58:42.206Z,1.23
2018-12-11T12:01:08.513Z,1.17
2018-12-11T12:03:37.025Z,0.80
2018-12-11T12:06:03.333Z,0.70
2018-12-11T12:08:29.988Z,0.70
2018-12-11T12:10:56.718Z,1.03
2018-12-11T12:13:23.931Z,0.90
2018-12-11T12:15:50.273Z,1.10
2018-12-11T12:18:18.243Z,0.90
2018-12-11T12:20:45.321Z,0.97
2018-12-11T12:23:12.016Z,1.37
2018-12-11T12:25:38.329Z,0.87
2018-12-11T12:28:04.645Z,0.80
2018-12-11T12:30:31.280Z,0.80
2018-12-11T12:32:57.958Z,0.97
2018-12-11T12:35:24.642Z,0.70
2018-12-11T12:37:51.295Z,0.77
2018-12-11T12:40:17.977Z,0.70
2018-12-11T12:42:44.633Z,0.80
2018-12-11T12:45:11.156Z,0.90
2018-12-11T12:47:38.946Z,1.10
2018-12-11T12:50:05.977Z,0.90
2018-12-11T12:52:32.663Z,0.93
2018-12-11T12:55:00.185Z,0.90
2018-12-11T12:57:26.864Z,0.80
2018-12-11T12:59:53.789Z,0.93
2018-12-11T13:02:21.001Z,0.63
2018-12-11T13:04:47.655Z,0.80
2018-12-11T13:07:15.288Z,1.00
2018-12-11T13:09:41.973Z,0.90
2018-12-11T13:12:08.269Z,0.80
2018-12-11T13:14:35.823Z,0.83
2018-12-11T13:17:02.362Z,0.73
2018-12-11T13:19:28.996Z,0.83
2018-12-11T13:21:56.428Z,0.90
2018-12-11T13:24:22.756Z,1.03
2018-12-11T13:26:50.248Z,1.00
2018-12-11T13:29:17.025Z,0.90
2018-12-11T13:31:44.456Z,1.10
2018-12-11T13:34:11.094Z,0.70
2018-12-11T13:36:38.784Z,0.70
2018-12-11T13:39:05.958Z,0.90
2018-12-11T13:41:33.031Z,0.80
2018-12-11T13:44:00.641Z,0.90
2018-12-11T13:46:27.341Z,1.17
2018-12-11T13:48:54.625Z,1.00
2018-12-11T13:51:21.281Z,0.77
2018-12-11T13:53:47.603Z,0.80
2018-12-11T13:56:14.412Z,1.10
2018-12-11T13:58:43.080Z,0.70
2018-12-11T14:01:09.754Z,0.70
2018-12-11T14:03:38.002Z,0.60
2018-12-11T14:06:05.200Z,0.90
2018-12-11T14:08:32.818Z,0.80
2018-12-11T14:11:00.200Z,0.80
2018-12-11T14:13:26.859Z,0.90
2018-12-11T14:15:53.521Z,1.10
2018-12-11T14:18:19.868Z,1.00
2018-12-11T14:20:46.657Z,0.80
2018-12-11T14:23:13.659Z,0.80
2018-12-11T14:25:40.334Z,0.80
2018-12-11T14:28:06.658Z,0.83
2018-12-11T14:30:33.342Z,1.00
2018-12-11T14:33:00.040Z,0.73
2018-12-11T14:35:26.880Z,0.90
2018-12-11T14:37:53.776Z,0.93
2018-12-11T14:40:21.629Z,0.80
2018-12-11T14:42:49.214Z,0.60
2018-12-11T14:45:15.878Z,0.97
2018-12-11T14:47:42.645Z,0.60
2018-12-11T14:50:10.762Z,0.77
2018-12-11T14:52:37.385Z,0.70
2018-12-11T14:55:04.202Z,0.73
2018-12-11T14:57:31.409Z,1.00
2018-12-11T14:59:59.937Z,1.00
2018-12-11T15:02:27.172Z,1.00
2018-12-11T15:04:53.808Z,0.90
2018-12-11T15:07:20.460Z,0.77
2018-12-11T15:09:47.521Z,0.97
2018-12-11T15:12:14.272Z,0.70
2018-12-11T15:14:40.928Z,1.00
2018-12-11T15:17:07.212Z,0.87
2018-12-11T15:19:34.761Z,0.97
2018-12-11T15:22:02.208Z,1.00
2018-12-11T15:24:28.827Z,0.83
2018-12-11T15:26:55.452Z,1.03
2018-12-11T15:29:22.096Z,0.87
2018-12-11T15:31:48.378Z,0.70
2018-12-11T15:34:15.307Z,1.00
2018-12-11T15:36:41.944Z,1.20
2018-12-11T15:39:08.593Z,0.90
2018-12-11T15:41:35.226Z,1.20
2018-12-11T15:44:01.958Z,1.27
2018-12-11T15:46:28.816Z,1.07
2018-12-11T15:48:55.448Z,0.90
2018-12-11T15:51:22.220Z,1.10
2018-12-11T15:53:48.855Z,1.00
2018-12-11T15:56:15.480Z,0.83
2018-12-11T15:58:42.850Z,0.90
2018-12-11T16:01:09.433Z,1.40
2018-12-11T16:03:36.099Z,1.30
2018-12-11T16:06:02.755Z,1.00
2018-12-11T16:08:29.958Z,1.13
2018-12-11T16:10:56.576Z,1.30
2018-12-11T16:13:23.211Z,1.20
2018-12-11T16:15:49.872Z,1.47
2018-12-11T16:18:17.129Z,1.40
2018-12-11T16:20:44.444Z,1.10
2018-12-11T16:23:11.087Z,1.20
2018-12-11T16:25:37.712Z,1.23
2018-12-11T16:28:04.347Z,1.23
2018-12-11T16:30:31.008Z,1.10
2018-12-11T16:32:57.665Z,1.30
2018-12-11T16:35:24.334Z,1.90
2018-12-11T16:37:51.940Z,1.40
2018-12-11T16:40:18.576Z,1.20
2018-12-11T16:42:45.209Z,1.10
2018-12-11T16:45:11.864Z,1.27
2018-12-11T16:47:38.532Z,1.20
2018-12-11T16:50:06.063Z,1.23
2018-12-11T16:52:33.525Z,1.93
2018-12-11T16:55:01.088Z,1.27
2018-12-11T16:57:27.756Z,1.60
2018-12-11T16:59:54.448Z,1.10
2018-12-11T17:02:20.757Z,1.10
2018-12-11T17:04:47.413Z,1.10
2018-12-11T17:07:14.392Z,1.20
2018-12-11T17:09:41.745Z,1.13
2018-12-11T17:12:08.996Z,1.30
2018-12-11T17:14:35.641Z,1.20
2018-12-11T17:17:02.316Z,1.23
2018-12-11T17:19:28.952Z,1.07
2018-12-11T17:21:55.628Z,2.03
2018-12-11T17:24:22.797Z,2.47
2018-12-11T17:26:49.424Z,2.00
2018-12-11T17:29:15.701Z,2.47
2018-12-11T17:31:41.989Z,1.80
2018-12-11T17:34:08.614Z,1.90
2018-12-11T17:36:35.823Z,1.47
2018-12-11T17:39:04.533Z,1.60
2018-12-11T17:41:31.909Z,1.43
2018-12-11T17:43:58.592Z,1.40
2018-12-11T17:46:25.232Z,1.47
2018-12-11T17:48:51.968Z,1.40
2018-12-11T17:51:19.057Z,1.80
2018-12-11T17:53:45.694Z,1.10
2018-12-11T17:56:12.336Z,1.43
2018-12-11T17:58:39.037Z,1.43
2018-12-11T18:01:06.816Z,1.37
2018-12-11T18:03:33.839Z,1.40
2018-12-11T18:06:00.531Z,2.00
2018-12-11T18:08:27.175Z,1.97
2018-12-11T18:10:53.860Z,1.67
2018-12-11T18:13:20.510Z,1.77
2018-12-11T18:15:47.699Z,1.63
2018-12-11T18:18:14.344Z,3.70
2018-12-11T18:20:41.230Z,2.70
2018-12-11T18:23:08.909Z,2.10
2018-12-11T18:25:36.665Z,1.80
2018-12-11T18:28:04.116Z,1.70
2018-12-11T18:30:30.408Z,2.20
2018-12-11T18:32:58.112Z,1.97
2018-12-11T18:35:25.048Z,1.90
2018-12-11T18:37:51.332Z,2.50
2018-12-11T18:40:18.233Z,2.00
2018-12-11T18:42:44.558Z,1.43
2018-12-11T18:45:11.194Z,2.00
2018-12-11T18:47:37.938Z,1.67
2018-12-11T18:50:04.698Z,1.60
2018-12-11T18:52:31.610Z,2.20
2018-12-11T18:54:58.335Z,1.77
2018-12-11T18:57:24.983Z,2.27
2018-12-11T18:59:51.625Z,2.07
2018-12-11T19:02:18.271Z,2.00
2018-12-11T19:04:45.852Z,2.20
2018-12-11T19:07:13.757Z,1.90
2018-12-11T19:09:40.067Z,2.03
2018-12-11T19:12:06.720Z,2.00
2018-12-11T19:14:34.402Z,2.90
2018-12-11T19:17:01.857Z,2.60
2018-12-11T19:19:28.503Z,2.77
2018-12-11T19:21:55.172Z,2.30
2018-12-11T19:24:21.813Z,1.90
2018-12-11T19:26:48.497Z,2.17
2018-12-11T19:29:15.127Z,2.13
2018-12-11T19:31:42.624Z,2.07
2018-12-11T19:34:09.287Z,1.77
2018-12-11T19:36:36.011Z,1.90
2018-12-11T19:39:04.720Z,1.50
2018-12-11T19:41:31.359Z,1.97
2018-12-11T19:43:57.646Z,1.80
2018-12-11T19:46:24.292Z,1.73
2018-12-11T19:48:50.593Z,1.90
2018-12-11T19:51:17.241Z,1.93
2018-12-11T19:53:43.880Z,1.90
2018-12-11T19:56:10.568Z,1.60
2018-12-11T19:58:37.620Z,2.10
2018-12-11T20:01:04.512Z,2.60
2018-12-11T20:03:30.839Z,2.03
2018-12-11T20:05:57.744Z,2.10
2018-12-11T20:08:30.901Z,2.30
2018-12-11T20:10:53.331Z,1.60
2018-12-11T20:13:19.984Z,1.90
2018-12-11T20:15:46.660Z,2.40
2018-12-11T20:18:13.292Z,1.83
2018-12-11T20:20:39.950Z,1.60
2018-12-11T20:23:06.603Z,2.30
2018-12-11T20:25:33.257Z,1.87
2018-12-11T20:27:59.673Z,1.70
2018-12-11T20:30:26.284Z,1.83
2018-12-11T20:32:52.562Z,1.80
2018-12-11T20:35:18.844Z,1.93
2018-12-11T20:37:45.756Z,2.30
2018-12-11T20:40:12.651Z,2.07
2018-12-11T20:42:39.311Z,1.90
2018-12-11T20:45:06.097Z,2.30
2018-12-11T20:47:32.732Z,2.17
2018-12-11T20:49:59.364Z,2.60
2018-12-11T20:52:25.963Z,1.90
2018-12-11T20:54:52.256Z,2.20
2018-12-11T20:57:18.712Z,2.00
2018-12-11T20:59:45.387Z,2.17
2018-12-11T21:02:12.036Z,2.40
2018-12-11T21:04:38.307Z,2.53
2018-12-11T21:07:04.945Z,2.47
2018-12-11T21:09:31.608Z,2.60
2018-12-11T21:11:58.248Z,2.40
2018-12-11T21:14:24.897Z,2.63
2018-12-11T21:16:51.540Z,2.50
2018-12-11T21:19:18.308Z,2.43
2018-12-11T21:21:45.316Z,3.00
2018-12-11T21:24:13.247Z,2.50
2018-12-11T21:26:40.142Z,2.80
2018-12-11T21:29:06.789Z,2.60
2018-12-11T21:31:33.652Z,2.33
2018-12-11T21:34:00.301Z,2.13
2018-12-11T21:36:26.615Z,2.67
2018-12-11T21:38:53.826Z,2.83
2018-12-11T21:41:20.508Z,2.13
2018-12-11T21:43:47.149Z,2.60
2018-12-11T21:46:14.023Z,2.50
2018-12-11T21:48:47.528Z,2.83
2018-12-11T21:51:14.610Z,2.80
2018-12-11T21:53:41.248Z,2.70
2018-12-11T21:56:08.008Z,2.60
2018-12-11T21:58:34.313Z,2.70
2018-12-11T22:01:01.247Z,2.63
2018-12-11T22:03:28.140Z,3.10
2018-12-11T22:05:55.540Z,2.27
2018-12-11T22:08:22.167Z,2.83
2018-12-11T22:10:48.840Z,2.50
2018-12-11T22:13:15.476Z,7.70
2018-12-11T22:15:41.780Z,11.57
2018-12-11T22:18:08.411Z,7.00
2018-12-11T22:20:41.833Z,4.90
2018-12-11T22:23:08.489Z,4.17
2018-12-11T22:25:35.141Z,3.60
2018-12-11T22:28:01.767Z,3.40
2018-12-11T22:30:28.403Z,2.73
2018-12-11T22:32:55.064Z,2.17
2018-12-11T22:35:21.705Z,2.60
2018-12-11T22:37:48.133Z,2.50
2018-12-11T22:40:14.409Z,2.73
2018-12-11T22:42:41.059Z,2.50
2018-12-11T22:45:07.712Z,2.67
2018-12-11T22:47:35.286Z,3.92
2018-12-11T22:50:02.244Z,2.90
2018-12-11T22:52:28.875Z,3.30
2018-12-11T22:54:55.282Z,2.40
2018-12-11T22:57:35.265Z,3.87
2018-12-11T23:00:03.636Z,3.25
2018-12-11T23:02:30.281Z,2.50
2018-12-11T23:04:56.556Z,2.37
2018-12-11T23:07:23.208Z,2.80
2018-12-11T23:09:49.874Z,2.30
2018-12-11T23:12:16.527Z,2.60
2018-12-11T23:14:43.171Z,2.10
2018-12-11T23:17:09.744Z,2.47
2018-12-11T23:19:36.061Z,3.47
2018-12-11T23:22:02.399Z,2.73
2018-12-11T23:24:29.040Z,3.15
2018-12-11T23:26:55.323Z,2.63
2018-12-11T23:29:21.980Z,2.47
2018-12-11T23:31:48.622Z,3.20
2018-12-11T23:34:15.156Z,3.25
2018-12-11T23:36:41.788Z,2.53
2018-12-11T23:39:15.308Z,2.70
2018-12-11T23:41:41.957Z,2.67
2018-12-11T23:44:08.818Z,2.07
2018-12-11T23:46:35.144Z,1.70
2018-12-11T23:49:01.913Z,1.43
2018-12-11T23:51:28.204Z,1.50
2018-12-11T23:53:54.477Z,1.70
2018-12-11T23:56:21.134Z,1.50
2018-12-11T23:58:48.905Z,1.47
